Time;durP1;ratioP1;P1;durP2;ratioP2;P2;SDS_P1;SDS_P2;PMS_P1;PMS_P2;Temp;Humidity;BMP_temperature;BMP_pressure;BME280_temperature;BME280_humidity;BME280_pressure;Samples;Min_cycle;Max_cycle;Signal;HPM_P1;HPM_P2
2022/05/10 00:01:41;;;;;;;9.57;7.43;;;;;;;;;;5050552;28;20023;-86
2022/05/10 00:25:28;;;;;;;10.88;8.18;;;;;;;;;;4998488;28;20103;-85
2022/05/10 00:34:49;;;;;;;13.15;8.27;;;;;;;;;;5009586;28;20057;-84
2022/05/10 00:37:57;;;;;;;13.40;9.60;;;;;;;;;;5021294;28;20054;-84
2022/05/10 00:40:27;;;;;;;12.82;8.32;;;;;;;;;;5021034;28;20397;-85
2022/05/10 00:42:59;;;;;;;11.60;8.95;;;;;;;;;;5020669;28;20020;-85
2022/05/10 00:45:29;;;;;;;;;;;;;;;;;;5021343;28;20025;-85
2022/05/10 00:48:00;;;;;;;12.50;9.55;;;;;;;;;;5057781;28;19909;-85
2022/05/10 00:51:22;;;;;;;13.55;9.20;;;;;;;;;;5058070;28;20021;-86
2022/05/10 00:53:53;;;;;;;11.52;8.00;;;;;;;;;;5038378;28;20522;-87
2022/05/10 00:59:58;;;;;;;10.00;8.55;;;;;;;;;;5036340;28;20136;-86
2022/05/10 01:10:24;;;;;;;10.55;8.10;;;;;;;;;;5038681;28;20106;-86
2022/05/10 01:23:33;;;;;;;14.10;8.52;;;;;;;;;;4991464;28;20066;-86
2022/05/10 01:26:11;;;;;;;10.77;7.97;;;;;;;;;;4985232;28;20121;-86
2022/05/10 01:28:41;;;;;;;10.18;8.18;;;;;;;;;;5012417;28;20087;-87
2022/05/10 01:31:14;;;;;;;12.27;8.27;;;;;;;;;;5016553;28;20040;-86
2022/05/10 01:33:53;;;;;;;11.90;8.65;;;;;;;;;;5033840;28;20104;-86
2022/05/10 01:36:43;;;;;;;12.68;8.52;;;;;;;;;;5034286;28;20022;-86
2022/05/10 01:39:21;;;;;;;10.85;8.63;;;;;;;;;;5016215;28;20022;-86
2022/05/10 01:42:10;;;;;;;14.93;8.65;;;;;;;;;;5015697;28;20017;-86
2022/05/10 01:44:54;;;;;;;12.65;9.15;;;;;;;;;;4995527;28;20102;-86
2022/05/10 01:47:33;;;;;;;14.95;9.32;;;;;;;;;;4995718;28;20141;-86
2022/05/10 01:50:23;;;;;;;11.63;8.43;;;;;;;;;;4995070;28;20080;-86
2022/05/10 01:53:09;;;;;;;14.18;9.43;;;;;;;;;;4993353;28;20034;-87
2022/05/10 01:55:44;;;;;;;11.52;8.50;;;;;;;;;;5016076;28;20434;-86
2022/05/10 01:58:15;;;;;;;12.50;8.65;;;;;;;;;;5014826;28;20029;-87
2022/05/10 02:00:52;;;;;;;12.30;8.50;;;;;;;;;;5033678;28;20389;-86
2022/05/10 02:03:39;;;;;;;11.27;9.15;;;;;;;;;;5013753;28;20026;-86
2022/05/10 02:06:07;;;;;;;14.52;9.52;;;;;;;;;;5027661;28;20025;-87
2022/05/10 02:08:44;;;;;;;13.57;8.93;;;;;;;;;;4995739;28;20032;-85
2022/05/10 02:11:12;;;;;;;11.25;8.25;;;;;;;;;;5015560;28;20028;-87
2022/05/10 02:13:50;;;;;;;12.82;8.65;;;;;;;;;;5014961;28;20072;-86
2022/05/10 02:16:29;;;;;;;12.13;8.15;;;;;;;;;;5013944;28;20472;-87
2022/05/10 02:19:04;;;;;;;14.77;9.25;;;;;;;;;;4996761;28;20029;-87
2022/05/10 02:24:58;;;;;;;12.18;9.38;;;;;;;;;;5014466;28;20037;-86
2022/05/10 02:27:37;;;;;;;10.98;8.25;;;;;;;;;;5016582;28;20034;-85
2022/05/10 02:30:08;;;;;;;14.70;8.38;;;;;;;;;;5016543;28;20448;-86
2022/05/10 02:33:08;;;;;;;10.98;7.90;;;;;;;;;;5023874;28;20083;-86
2022/05/10 02:35:53;;;;;;;15.40;9.10;;;;;;;;;;5016943;28;20025;-86
2022/05/10 02:38:21;;;;;;;13.40;9.18;;;;;;;;;;5012854;28;20133;-87
2022/05/10 02:40:47;;;;;;;13.52;9.30;;;;;;;;;;5012589;28;20038;-87
2022/05/10 02:43:17;;;;;;;14.35;9.27;;;;;;;;;;5018754;28;20374;-86
2022/05/10 02:45:43;;;;;;;16.02;10.32;;;;;;;;;;5030650;28;20041;-86
2022/05/10 02:48:20;;;;;;;16.13;10.52;;;;;;;;;;5013903;28;20026;-85
2022/05/10 02:50:45;;;;;;;14.82;10.18;;;;;;;;;;5017346;28;20021;-87
2022/05/10 02:53:11;;;;;;;15.82;10.00;;;;;;;;;;5032615;28;20021;-86
2022/05/10 02:55:55;;;;;;;16.38;10.75;;;;;;;;;;5015830;28;20112;-86
2022/05/10 02:58:30;;;;;;;12.63;9.95;;;;;;;;;;5015738;28;20487;-87
2022/05/10 03:01:28;;;;;;;13.15;10.18;;;;;;;;;;5019235;28;20030;-86
2022/05/10 03:03:54;;;;;;;13.15;9.23;;;;;;;;;;5020142;28;20041;-85
2022/05/10 03:06:23;;;;;;;14.10;9.75;;;;;;;;;;5030785;28;20021;-86
2022/05/10 03:08:50;;;;;;;13.88;9.65;;;;;;;;;;5026406;28;20116;-86
2022/05/10 03:11:15;;;;;;;13.88;10.05;;;;;;;;;;5031096;28;20222;-86
2022/05/10 03:13:42;;;;;;;12.68;9.63;;;;;;;;;;5000321;28;20482;-86
2022/05/10 03:16:07;;;;;;;16.77;11.82;;;;;;;;;;5000673;28;20036;-86
2022/05/10 03:18:33;;;;;;;17.30;11.20;;;;;;;;;;5000751;28;20089;-86
2022/05/10 03:20:59;;;;;;;14.93;11.00;;;;;;;;;;5019325;28;20026;-87
2022/05/10 03:23:25;;;;;;;18.83;11.00;;;;;;;;;;5024331;28;20025;-85
2022/05/10 03:25:50;;;;;;;14.45;10.88;;;;;;;;;;5060227;28;20171;-85
2022/05/10 03:28:16;;;;;;;13.32;10.32;;;;;;;;;;5039651;28;20120;-86
2022/05/10 03:30:41;;;;;;;15.35;11.35;;;;;;;;;;5038681;28;20391;-86
2022/05/10 03:33:07;;;;;;;16.08;10.77;;;;;;;;;;5031534;28;20085;-85
2022/05/10 03:35:33;;;;;;;20.92;11.88;;;;;;;;;;5018545;28;20104;-86
2022/05/10 03:37:58;;;;;;;18.30;11.13;;;;;;;;;;5036139;28;20029;-86
2022/05/10 03:40:24;;;;;;;15.10;11.10;;;;;;;;;;5018953;28;20033;-86
2022/05/10 03:42:51;;;;;;;13.48;10.35;;;;;;;;;;5030058;28;20025;-85
2022/05/10 03:45:19;;;;;;;13.68;10.98;;;;;;;;;;5016723;28;20057;-86
2022/05/10 03:47:46;;;;;;;19.70;11.48;;;;;;;;;;5017812;28;20025;-87
2022/05/10 03:50:13;;;;;;;14.70;10.80;;;;;;;;;;5036080;28;20025;-87
2022/05/10 03:52:40;;;;;;;25.60;12.02;;;;;;;;;;5017071;28;20025;-86
2022/05/10 03:55:08;;;;;;;17.40;12.30;;;;;;;;;;5018445;28;20032;-86
2022/05/10 03:57:33;;;;;;;17.58;12.48;;;;;;;;;;5035967;28;20120;-86
2022/05/10 03:59:59;;;;;;;19.50;12.27;;;;;;;;;;5036774;28;20060;-86
2022/05/10 04:02:24;;;;;;;18.58;12.18;;;;;;;;;;5035667;28;20029;-85
2022/05/10 04:04:50;;;;;;;15.50;11.45;;;;;;;;;;5018045;28;20067;-86
2022/05/10 04:07:16;;;;;;;15.98;11.05;;;;;;;;;;5017945;28;20521;-86
2022/05/10 04:09:41;;;;;;;16.17;10.95;;;;;;;;;;5019596;28;20021;-86
2022/05/10 04:12:07;;;;;;;15.88;11.68;;;;;;;;;;5018357;28;20029;-86
2022/05/10 04:14:32;;;;;;;18.42;11.77;;;;;;;;;;5017255;28;20033;-87
2022/05/10 04:16:58;;;;;;;16.30;10.93;;;;;;;;;;5041203;28;20391;-86
2022/05/10 04:19:24;;;;;;;18.15;11.55;;;;;;;;;;5019183;28;20021;-85
2022/05/10 04:21:49;;;;;;;17.52;11.80;;;;;;;;;;5011010;28;20017;-87
2022/05/10 04:24:16;;;;;;;23.70;13.50;;;;;;;;;;5025008;28;20025;-85
2022/05/10 04:26:41;;;;;;;14.15;10.68;;;;;;;;;;5036741;28;20026;-85
2022/05/10 04:29:07;;;;;;;18.25;13.52;;;;;;;;;;5032442;28;20020;-86
2022/05/10 04:31:32;;;;;;;22.85;12.35;;;;;;;;;;5047118;28;20041;-86
2022/05/10 04:33:57;;;;;;;16.08;11.80;;;;;;;;;;5017584;28;20064;-86
2022/05/10 04:36:25;;;;;;;19.75;11.93;;;;;;;;;;5017074;28;20387;-87
2022/05/10 04:38:51;;;;;;;22.83;11.68;;;;;;;;;;5017239;28;20021;-87
2022/05/10 04:41:26;;;;;;;18.73;12.55;;;;;;;;;;5032208;28;20034;-86
2022/05/10 04:43:54;;;;;;;20.05;12.95;;;;;;;;;;4998991;28;20088;-86
2022/05/10 04:46:19;;;;;;;15.70;11.85;;;;;;;;;;5009022;28;20026;-85
2022/05/10 04:48:44;;;;;;;18.50;11.77;;;;;;;;;;5037497;28;20036;-86
2022/05/10 04:51:10;;;;;;;14.98;11.50;;;;;;;;;;4999726;28;20041;-86
2022/05/10 04:53:35;;;;;;;15.73;11.90;;;;;;;;;;5017730;28;20436;-86
2022/05/10 04:56:03;;;;;;;15.98;11.32;;;;;;;;;;5035777;28;20454;-87
2022/05/10 04:58:28;;;;;;;19.05;11.98;;;;;;;;;;5034501;28;20067;-86
2022/05/10 05:00:56;;;;;;;15.82;12.20;;;;;;;;;;5037223;28;20029;-87
2022/05/10 05:03:22;;;;;;;17.55;12.15;;;;;;;;;;5023699;28;20022;-85
2022/05/10 05:05:47;;;;;;;16.60;11.82;;;;;;;;;;5022954;28;20028;-87
2022/05/10 05:08:13;;;;;;;15.98;11.20;;;;;;;;;;5016519;28;20040;-87
2022/05/10 05:10:38;;;;;;;16.30;12.25;;;;;;;;;;5010769;28;20547;-86
2022/05/10 05:13:03;;;;;;;14.65;11.65;;;;;;;;;;4998652;28;20032;-86
2022/05/10 05:15:29;;;;;;;12.93;10.13;;;;;;;;;;5013578;28;20103;-86
2022/05/10 05:17:54;;;;;;;19.05;11.80;;;;;;;;;;5016626;28;20031;-87
2022/05/10 05:20:20;;;;;;;14.52;10.93;;;;;;;;;;5033662;28;20091;-87
2022/05/10 05:22:45;;;;;;;14.48;11.05;;;;;;;;;;5016638;28;20491;-86
2022/05/10 05:25:11;;;;;;;13.95;10.93;;;;;;;;;;5010248;28;20025;-85
2022/05/10 05:27:36;;;;;;;14.90;11.30;;;;;;;;;;4997044;28;20514;-85
2022/05/10 05:30:02;;;;;;;18.27;11.68;;;;;;;;;;5002987;28;20128;-86
2022/05/10 05:32:30;;;;;;;14.73;11.05;;;;;;;;;;5026141;28;20026;-87
2022/05/10 05:34:56;;;;;;;15.27;11.70;;;;;;;;;;5015588;28;20471;-84
2022/05/10 05:37:34;;;;;;;16.75;11.38;;;;;;;;;;5032444;28;20027;-86
2022/05/10 05:40:21;;;;;;;19.77;10.90;;;;;;;;;;5011155;28;20614;-86
2022/05/10 05:42:47;;;;;;;14.30;10.80;;;;;;;;;;5032269;28;20022;-86
2022/05/10 05:45:14;;;;;;;20.90;11.40;;;;;;;;;;5009715;28;20120;-85
2022/05/10 05:47:40;;;;;;;13.38;10.77;;;;;;;;;;5014243;28;20029;-87
2022/05/10 05:50:07;;;;;;;15.25;11.43;;;;;;;;;;4997801;28;20044;-87
2022/05/10 05:52:35;;;;;;;18.08;10.85;;;;;;;;;;5007529;28;20041;-85
2022/05/10 05:55:00;;;;;;;15.48;10.55;;;;;;;;;;5031003;28;20093;-85
2022/05/10 05:57:26;;;;;;;13.98;10.63;;;;;;;;;;5044029;28;20108;-86
2022/05/10 05:59:56;;;;;;;15.63;10.73;;;;;;;;;;5015547;28;20029;-87
2022/05/10 06:02:23;;;;;;;16.70;9.73;;;;;;;;;;5032450;28;20024;-86
2022/05/10 06:04:48;;;;;;;14.48;10.50;;;;;;;;;;5024606;28;20028;-86
2022/05/10 06:07:14;;;;;;;15.43;10.27;;;;;;;;;;5028564;28;20034;-86
2022/05/10 06:09:40;;;;;;;14.55;10.50;;;;;;;;;;4996838;28;20026;-85
2022/05/10 06:12:07;;;;;;;16.15;10.60;;;;;;;;;;5015360;28;20089;-85
2022/05/10 06:14:34;;;;;;;14.07;10.07;;;;;;;;;;4999950;28;20086;-86
2022/05/10 06:17:00;;;;;;;13.90;10.38;;;;;;;;;;5015416;28;20021;-86
2022/05/10 06:19:27;;;;;;;16.15;11.45;;;;;;;;;;5015296;28;20167;-86
2022/05/10 06:21:54;;;;;;;15.95;10.18;;;;;;;;;;5032828;28;20020;-87
2022/05/10 06:24:20;;;;;;;14.48;9.88;;;;;;;;;;5015816;28;20029;-85
2022/05/10 06:26:45;;;;;;;14.65;9.88;;;;;;;;;;5016350;28;20415;-86
2022/05/10 06:29:11;;;;;;;17.40;10.02;;;;;;;;;;4998428;28;20423;-86
2022/05/10 06:31:40;;;;;;;13.93;10.10;;;;;;;;;;5023804;28;20108;-85
2022/05/10 06:34:06;;;;;;;18.02;10.20;;;;;;;;;;5036185;28;20113;-87
2022/05/10 06:36:31;;;;;;;15.48;9.80;;;;;;;;;;5037593;28;20072;-87
2022/05/10 06:38:58;;;;;;;14.63;10.35;;;;;;;;;;5033823;28;20032;-87
2022/05/10 06:41:24;;;;;;;14.10;9.68;;;;;;;;;;5028823;28;20033;-86
2022/05/10 06:43:49;;;;;;;17.45;9.13;;;;;;;;;;5022264;28;20324;-86
2022/05/10 06:46:18;;;;;;;12.80;9.35;;;;;;;;;;5018435;28;20505;-86
2022/05/10 06:48:47;;;;;;;13.40;8.40;;;;;;;;;;5026261;28;20509;-88
2022/05/10 06:51:15;;;;;;;10.68;8.75;;;;;;;;;;5027194;28;20063;-88
2022/05/10 06:53:41;;;;;;;11.68;8.70;;;;;;;;;;5020603;28;20021;-88
2022/05/10 06:56:08;;;;;;;14.30;8.52;;;;;;;;;;5013549;28;20117;-88
2022/05/10 06:58:34;;;;;;;12.75;8.40;;;;;;;;;;5013567;28;20033;-87
2022/05/10 07:01:00;;;;;;;15.60;9.35;;;;;;;;;;5018070;28;20037;-88
2022/05/10 07:03:31;;;;;;;13.38;8.73;;;;;;;;;;5020151;28;20025;-88
2022/05/10 07:05:58;;;;;;;11.20;8.45;;;;;;;;;;5033187;28;20033;-87
2022/05/10 07:08:24;;;;;;;12.40;8.10;;;;;;;;;;5017445;28;20387;-89
2022/05/10 07:10:49;;;;;;;14.65;8.77;;;;;;;;;;5020210;28;20034;-87
2022/05/10 07:13:20;;;;;;;16.88;8.40;;;;;;;;;;5019678;28;20037;-88
2022/05/10 07:15:45;;;;;;;14.32;8.68;;;;;;;;;;5034107;28;20039;-88
2022/05/10 07:18:11;;;;;;;15.07;8.13;;;;;;;;;;5019639;28;20089;-87
2022/05/10 07:20:37;;;;;;;13.85;8.18;;;;;;;;;;5032022;28;20025;-86
2022/05/10 07:23:03;;;;;;;13.25;7.35;;;;;;;;;;5015590;28;20057;-87
2022/05/10 07:25:29;;;;;;;11.77;8.02;;;;;;;;;;5018789;28;20161;-87
2022/05/10 07:27:56;;;;;;;10.70;7.53;;;;;;;;;;5028901;28;20625;-88
2022/05/10 07:30:23;;;;;;;11.48;7.60;;;;;;;;;;5015540;28;20044;-89
2022/05/10 07:32:49;;;;;;;12.60;7.50;;;;;;;;;;5010790;28;20052;-88
2022/05/10 07:36:23;;;;;;;10.15;8.10;;;;;;;;;;5019646;28;20391;-89
2022/05/10 07:38:03;;;;;;;10.45;7.15;;;;;;;;;;5064173;28;20013;-87
2022/05/10 07:40:28;;;;;;;9.93;6.97;;;;;;;;;;5047388;28;20040;-88
2022/05/10 07:42:54;;;;;;;8.00;7.05;;;;;;;;;;5023566;28;20021;-87
2022/05/10 07:45:19;;;;;;;9.60;6.88;;;;;;;;;;5019998;28;20033;-88
2022/05/10 07:47:46;;;;;;;13.05;6.95;;;;;;;;;;5010734;28;20376;-87
2022/05/10 07:50:12;;;;;;;12.20;6.38;;;;;;;;;;5037511;28;20448;-88
2022/05/10 07:52:40;;;;;;;9.32;6.55;;;;;;;;;;5036287;28;20039;-88
2022/05/10 07:55:06;;;;;;;9.07;6.90;;;;;;;;;;5036803;28;20029;-88
2022/05/10 07:57:31;;;;;;;15.77;7.47;;;;;;;;;;5018778;28;20026;-88
2022/05/10 07:59:56;;;;;;;10.05;6.97;;;;;;;;;;5018483;28;20092;-88
2022/05/10 08:02:22;;;;;;;7.93;6.18;;;;;;;;;;5004652;28;20026;-87
2022/05/10 08:04:47;;;;;;;14.10;7.05;;;;;;;;;;5024913;28;20017;-87
2022/05/10 08:07:13;;;;;;;11.15;6.78;;;;;;;;;;5016764;28;20025;-87
2022/05/10 08:09:38;;;;;;;8.93;6.57;;;;;;;;;;5003908;28;20112;-88
2022/05/10 08:12:04;;;;;;;13.43;6.95;;;;;;;;;;5010482;28;20034;-88
2022/05/10 08:14:30;;;;;;;14.52;6.65;;;;;;;;;;5016945;28;20045;-88
2022/05/10 08:16:56;;;;;;;13.50;6.63;;;;;;;;;;5017038;28;20508;-88
2022/05/10 08:19:21;;;;;;;11.13;6.60;;;;;;;;;;5017354;28;20521;-88
2022/05/10 08:21:46;;;;;;;11.93;6.00;;;;;;;;;;5036017;28;20368;-89
2022/05/10 08:24:12;;;;;;;15.20;7.18;;;;;;;;;;5021555;28;20097;-88
2022/05/10 08:26:37;;;;;;;10.77;6.80;;;;;;;;;;5036239;28;20056;-88
2022/05/10 08:29:03;;;;;;;9.50;6.03;;;;;;;;;;5010351;28;20167;-88
2022/05/10 08:31:28;;;;;;;15.25;6.30;;;;;;;;;;5019333;28;20140;-88
2022/05/10 08:33:53;;;;;;;9.85;6.15;;;;;;;;;;5025774;28;20017;-87
2022/05/10 08:36:19;;;;;;;8.85;5.80;;;;;;;;;;5025144;28;20039;-87
2022/05/10 08:38:44;;;;;;;8.93;5.70;;;;;;;;;;5015463;28;20107;-87
2022/05/10 08:41:20;;;;;;;11.40;5.70;;;;;;;;;;5004074;28;20026;-87
2022/05/10 08:44:10;;;;;;;10.18;6.05;;;;;;;;;;5035169;28;20652;-85
2022/05/10 08:46:43;;;;;;;9.95;5.82;;;;;;;;;;5032266;28;20053;-85
2022/05/10 08:49:23;;;;;;;7.38;6.10;;;;;;;;;;4998928;28;20125;-85
2022/05/10 08:51:52;;;;;;;10.55;5.72;;;;;;;;;;5017442;28;20091;-85
2022/05/10 08:54:17;;;;;;;8.63;5.95;;;;;;;;;;5048128;28;20036;-85
2022/05/10 08:56:52;;;;;;;6.32;5.32;;;;;;;;;;5011461;28;20038;-85
2022/05/10 08:59:43;;;;;;;8.38;5.60;;;;;;;;;;5000229;28;20033;-85
2022/05/10 09:02:13;;;;;;;6.72;4.85;;;;;;;;;;5027135;28;20076;-85
2022/05/10 09:04:51;;;;;;;9.02;4.95;;;;;;;;;;5011808;28;20063;-85
2022/05/10 09:07:31;;;;;;;9.48;5.13;;;;;;;;;;5017970;28;20539;-86
2022/05/10 09:10:03;;;;;;;5.82;5.20;;;;;;;;;;5013066;28;20029;-85
2022/05/10 09:12:40;;;;;;;8.32;5.10;;;;;;;;;;5029167;28;20102;-86
2022/05/10 09:15:10;;;;;;;12.90;5.82;;;;;;;;;;5036577;28;20029;-85
2022/05/10 09:17:39;;;;;;;8.73;5.18;;;;;;;;;;5008654;28;20057;-86
2022/05/10 09:20:07;;;;;;;6.68;5.22;;;;;;;;;;5043173;28;20044;-86
2022/05/10 09:22:57;;;;;;;6.45;5.32;;;;;;;;;;5059476;28;20081;-86
2022/05/10 09:25:28;;;;;;;5.65;4.50;;;;;;;;;;5023363;28;20020;-86
2022/05/10 09:27:54;;;;;;;8.82;4.85;;;;;;;;;;5053848;28;20017;-86
2022/05/10 09:30:34;;;;;;;6.13;4.53;;;;;;;;;;5049017;28;20029;-86
2022/05/10 09:36:10;;;;;;;9.85;5.50;;;;;;;;;;5052160;28;20044;-85
2022/05/10 09:38:44;;;;;;;11.77;5.10;;;;;;;;;;5039063;28;20033;-84
2022/05/10 09:41:25;;;;;;;20.95;5.88;;;;;;;;;;5036686;28;20022;-86
2022/05/10 09:43:52;;;;;;;8.75;5.10;;;;;;;;;;5030181;28;20017;-85
2022/05/10 09:46:17;;;;;;;7.85;4.55;;;;;;;;;;5040468;28;20026;-85
2022/05/10 09:48:44;;;;;;;7.22;4.63;;;;;;;;;;5030806;28;20050;-85
2022/05/10 09:51:24;;;;;;;23.75;5.60;;;;;;;;;;5020215;28;20107;-85
2022/05/10 09:53:52;;;;;;;5.95;4.75;;;;;;;;;;5039712;28;20037;-85
2022/05/10 09:56:24;;;;;;;5.38;4.03;;;;;;;;;;5017723;28;20025;-85
2022/05/10 09:59:03;;;;;;;6.82;4.05;;;;;;;;;;5018754;28;20411;-85
2022/05/10 10:01:48;;;;;;;6.22;3.85;;;;;;;;;;5016219;28;20037;-85
2022/05/10 10:04:21;;;;;;;5.80;4.47;;;;;;;;;;5031599;28;20105;-85
2022/05/10 10:07:13;;;;;;;5.85;3.63;;;;;;;;;;5034017;28;20029;-85
2022/05/10 10:09:45;;;;;;;5.90;3.67;;;;;;;;;;5049433;28;20089;-84
2022/05/10 10:12:29;;;;;;;5.38;3.50;;;;;;;;;;5050400;28;20040;-85
2022/05/10 10:14:55;;;;;;;4.35;3.85;;;;;;;;;;5021570;28;20072;-86
2022/05/10 10:17:34;;;;;;;8.38;4.20;;;;;;;;;;5019296;28;20033;-86
2022/05/10 10:20:31;;;;;;;6.75;4.22;;;;;;;;;;5025916;28;20021;-85
2022/05/10 10:23:03;;;;;;;6.57;4.15;;;;;;;;;;5018576;28;20083;-86
2022/05/10 10:25:39;;;;;;;10.18;4.82;;;;;;;;;;5025993;28;20026;-86
2022/05/10 10:28:19;;;;;;;5.80;4.93;;;;;;;;;;5039096;28;20037;-85
2022/05/10 10:30:59;;;;;;;6.03;4.22;;;;;;;;;;5037435;28;20283;-86
2022/05/10 10:34:02;;;;;;;6.15;4.30;;;;;;;;;;5018419;28;20061;-85
2022/05/10 10:36:37;;;;;;;4.80;4.10;;;;;;;;;;5042642;28;20021;-85
2022/05/10 10:39:05;;;;;;;8.20;4.20;;;;;;;;;;5051485;28;20018;-85
2022/05/10 10:41:53;;;;;;;7.55;4.28;;;;;;;;;;5032633;28;20013;-85
2022/05/10 10:44:24;;;;;;;6.70;4.60;;;;;;;;;;5017362;28;20033;-85
2022/05/10 10:47:38;;;;;;;5.43;4.07;;;;;;;;;;5037148;28;20029;-84
2022/05/10 10:50:41;;;;;;;5.15;4.00;;;;;;;;;;5008096;28;20077;-85
2022/05/10 10:53:10;;;;;;;8.25;4.20;;;;;;;;;;4934879;29;20043;-86
2022/05/10 10:56:04;;;;;;;4.43;3.85;;;;;;;;;;4997772;28;20069;-85
2022/05/10 10:58:52;;;;;;;10.07;4.45;;;;;;;;;;4999501;28;20037;-85
2022/05/10 11:01:56;;;;;;;4.90;3.85;;;;;;;;;;5045948;28;20126;-86
2022/05/10 11:05:21;;;;;;;6.10;3.85;;;;;;;;;;5026754;28;20029;-85
2022/05/10 11:08:17;;;;;;;5.50;4.35;;;;;;;;;;5013776;28;20038;-85
2022/05/10 11:10:51;;;;;;;5.05;3.65;;;;;;;;;;5020509;28;20476;-85
2022/05/10 11:13:38;;;;;;;9.68;3.75;;;;;;;;;;5034444;28;20026;-86
2022/05/10 11:16:10;;;;;;;4.05;2.97;;;;;;;;;;5027809;28;20029;-86
2022/05/10 11:18:59;;;;;;;7.53;3.40;;;;;;;;;;5007836;28;20036;-86
2022/05/10 11:22:21;;;;;;;4.90;3.53;;;;;;;;;;5021431;28;20104;-85
2022/05/10 11:25:17;;;;;;;4.10;3.40;;;;;;;;;;4986100;28;20096;-85
2022/05/10 11:28:16;;;;;;;5.50;3.72;;;;;;;;;;5034103;28;20479;-86
2022/05/10 11:31:24;;;;;;;7.82;3.42;;;;;;;;;;5039622;28;20029;-85
2022/05/10 11:34:11;;;;;;;4.90;3.50;;;;;;;;;;5034924;28;20032;-85
2022/05/10 11:36:42;;;;;;;6.18;3.42;;;;;;;;;;5026026;28;20123;-85
2022/05/10 11:39:10;;;;;;;;;;;;;;;;;;5040298;28;20040;-85
2022/05/10 11:41:41;;;;;;;3.10;2.80;;;;;;;;;;5038304;28;19912;-85
2022/05/10 11:44:25;;;;;;;3.58;3.03;;;;;;;;;;5016651;28;20025;-85
2022/05/10 11:47:04;;;;;;;4.53;3.40;;;;;;;;;;5020285;28;20021;-84
2022/05/10 11:50:01;;;;;;;8.10;3.75;;;;;;;;;;5013631;28;20121;-84
2022/05/10 11:52:45;;;;;;;6.47;4.20;;;;;;;;;;5020655;28;20040;-86
2022/05/10 11:55:11;;;;;;;6.43;4.07;;;;;;;;;;5034333;28;20025;-86
2022/05/10 11:57:37;;;;;;;5.15;3.67;;;;;;;;;;5004839;28;20024;-86
2022/05/10 12:00:30;;;;;;;5.28;3.60;;;;;;;;;;5039053;28;20040;-86
2022/05/10 12:03:44;;;;;;;9.07;3.55;;;;;;;;;;5027286;28;20033;-86
2022/05/10 12:06:24;;;;;;;5.95;3.60;;;;;;;;;;5034667;28;20076;-85
2022/05/10 12:08:52;;;;;;;4.15;3.38;;;;;;;;;;5018797;28;20025;-86
2022/05/10 12:11:32;;;;;;;5.00;3.22;;;;;;;;;;5040778;28;20029;-85
2022/05/10 12:22:58;;;;;;;4.35;2.90;;;;;;;;;;5035120;28;20406;-86
2022/05/10 12:25:55;;;;;;;4.93;3.03;;;;;;;;;;5037889;28;20064;-86
2022/05/10 12:28:41;;;;;;;3.05;2.83;;;;;;;;;;5046895;28;20057;-86
2022/05/10 12:31:32;;;;;;;2.92;2.72;;;;;;;;;;5040268;28;20372;-86
2022/05/10 12:34:01;;;;;;;3.35;2.72;;;;;;;;;;5015822;28;20040;-86
2022/05/10 12:36:46;;;;;;;4.35;3.10;;;;;;;;;;5034839;28;20042;-85
2022/05/10 12:39:30;;;;;;;6.38;3.30;;;;;;;;;;5040349;28;20034;-86
2022/05/10 12:42:07;;;;;;;4.57;3.20;;;;;;;;;;5036317;28;20060;-86
2022/05/10 12:45:03;;;;;;;3.40;2.90;;;;;;;;;;5027045;28;20466;-86
2022/05/10 12:47:50;;;;;;;4.78;3.45;;;;;;;;;;5035813;28;20033;-86
2022/05/10 12:50:38;;;;;;;4.22;2.85;;;;;;;;;;5039626;28;20020;-86
2022/05/10 12:53:23;;;;;;;3.72;2.83;;;;;;;;;;5044791;28;20444;-86
2022/05/10 12:55:48;;;;;;;4.63;3.33;;;;;;;;;;5046239;28;20119;-86
2022/05/10 12:58:22;;;;;;;2.90;2.65;;;;;;;;;;5056912;28;20047;-85
2022/05/10 13:00:54;;;;;;;4.15;3.00;;;;;;;;;;5047718;28;20064;-85
2022/05/10 13:03:23;;;;;;;4.78;2.70;;;;;;;;;;5019732;28;20686;-85
2022/05/10 13:06:13;;;;;;;5.07;3.05;;;;;;;;;;5037120;28;20021;-85
2022/05/10 13:12:06;;;;;;;4.43;3.00;;;;;;;;;;5040276;28;20175;-85
2022/05/10 13:14:36;;;;;;;4.30;3.10;;;;;;;;;;5037441;28;20036;-86
2022/05/10 13:17:07;;;;;;;3.88;3.28;;;;;;;;;;5036627;28;20049;-86
2022/05/10 13:19:42;;;;;;;7.40;3.10;;;;;;;;;;5037803;28;20105;-86
2022/05/10 13:22:10;;;;;;;5.53;3.17;;;;;;;;;;5009642;28;20113;-85
2022/05/10 13:24:52;;;;;;;5.55;3.13;;;;;;;;;;5045968;28;20056;-85
2022/05/10 13:27:37;;;;;;;4.28;3.00;;;;;;;;;;5031653;28;20388;-85
2022/05/10 13:30:16;;;;;;;6.38;3.30;;;;;;;;;;5035772;28;20025;-86
2022/05/10 13:32:44;;;;;;;13.48;3.78;;;;;;;;;;5016642;28;20024;-85
2022/05/10 13:35:16;;;;;;;4.93;3.08;;;;;;;;;;5026744;28;20025;-86
2022/05/10 13:37:49;;;;;;;;;;;;;;;;;;5034923;28;20021;-85
2022/05/10 13:40:32;;;;;;;4.18;3.20;;;;;;;;;;5037816;28;19920;-85
2022/05/10 13:43:07;;;;;;;12.35;4.10;;;;;;;;;;5035167;28;20041;-86
2022/05/10 13:45:34;;;;;;;3.58;3.10;;;;;;;;;;5032105;28;20040;-86
2022/05/10 13:48:05;;;;;;;5.47;3.20;;;;;;;;;;5022433;28;20385;-85
2022/05/10 13:54:30;;;;;;;3.72;2.95;;;;;;;;;;4987836;28;20036;-86
2022/05/10 13:57:10;;;;;;;4.30;2.88;;;;;;;;;;5016426;28;20038;-86
2022/05/10 13:59:36;;;;;;;5.43;3.10;;;;;;;;;;5009544;28;20081;-86
2022/05/10 14:02:07;;;;;;;3.70;3.20;;;;;;;;;;5046671;28;20033;-85
2022/05/10 14:04:33;;;;;;;5.03;3.40;;;;;;;;;;5025805;28;20035;-86
2022/05/10 14:15:04;;;;;;;6.00;3.25;;;;;;;;;;4997250;28;20115;-85
2022/05/10 14:18:56;;;;;;;4.20;3.03;;;;;;;;;;4974496;28;20185;-84
2022/05/10 14:52:34;;;;;;;7.88;3.00;;;;;;;;;;4909240;29;20043;-85
2022/05/10 14:55:01;;;;;;;16.38;3.58;;;;;;;;;;5013745;28;20053;-86
2022/05/10 14:57:48;;;;;;;7.03;3.60;;;;;;;;;;5031301;28;20491;-85
2022/05/10 15:00:29;;;;;;;7.35;3.17;;;;;;;;;;5017240;28;20047;-86
2022/05/10 15:03:20;;;;;;;5.53;3.58;;;;;;;;;;5013313;28;20026;-85
2022/05/10 15:05:50;;;;;;;6.35;3.33;;;;;;;;;;5017527;28;20059;-87
2022/05/10 15:08:41;;;;;;;6.25;3.70;;;;;;;;;;5025559;28;20041;-86
2022/05/10 15:11:07;;;;;;;10.38;3.90;;;;;;;;;;5036466;28;20026;-85
2022/05/10 15:13:33;;;;;;;4.75;3.28;;;;;;;;;;5029666;28;20032;-85
2022/05/10 15:16:02;;;;;;;9.95;3.47;;;;;;;;;;5045922;28;20105;-86
2022/05/10 15:21:24;;;;;;;7.97;3.88;;;;;;;;;;5040399;28;20064;-86
2022/05/10 15:23:50;;;;;;;6.05;3.35;;;;;;;;;;5051588;28;20112;-86
2022/05/10 15:26:19;;;;;;;4.63;3.30;;;;;;;;;;5032327;28;20044;-84
2022/05/10 15:28:46;;;;;;;3.75;3.38;;;;;;;;;;5025809;28;20017;-86
2022/05/10 15:31:13;;;;;;;4.68;3.63;;;;;;;;;;5023529;28;20026;-85
2022/05/10 15:33:38;;;;;;;6.97;3.20;;;;;;;;;;5021750;28;20799;-85
2022/05/10 15:36:06;;;;;;;6.15;3.90;;;;;;;;;;5018635;28;20049;-85
2022/05/10 15:39:34;;;;;;;10.73;4.22;;;;;;;;;;5031732;28;20026;-86
2022/05/10 15:42:23;;;;;;;5.00;3.75;;;;;;;;;;4962203;29;20038;-85
2022/05/10 15:44:49;;;;;;;7.30;3.67;;;;;;;;;;4961510;29;20070;-85
2022/05/10 15:47:19;;;;;;;6.90;3.33;;;;;;;;;;5001420;28;20037;-84
2022/05/10 15:49:44;;;;;;;5.28;3.63;;;;;;;;;;5028631;28;20047;-85
2022/05/10 15:52:20;;;;;;;8.30;4.00;;;;;;;;;;5017132;28;20045;-86
2022/05/10 15:54:45;;;;;;;5.13;3.65;;;;;;;;;;5046410;28;20033;-84
2022/05/10 15:57:13;;;;;;;8.00;3.88;;;;;;;;;;5022077;28;20052;-85
2022/05/10 16:03:05;;;;;;;6.05;4.55;;;;;;;;;;5027459;28;20185;-85
2022/05/10 16:05:32;;;;;;;8.07;4.07;;;;;;;;;;5043954;28;20025;-85
2022/05/10 16:08:16;;;;;;;4.82;3.70;;;;;;;;;;5022423;28;20048;-85
2022/05/10 16:11:17;;;;;;;6.10;3.60;;;;;;;;;;5004752;28;20423;-85
2022/05/10 16:13:42;;;;;;;4.47;3.42;;;;;;;;;;5014201;28;20121;-84
2022/05/10 16:23:40;;;;;;;5.25;3.97;;;;;;;;;;5011088;28;20510;-85
2022/05/10 16:31:48;;;;;;;5.97;3.55;;;;;;;;;;5040368;28;20040;-85
2022/05/10 16:34:14;;;;;;;6.70;3.80;;;;;;;;;;5014842;28;20017;-84
2022/05/10 16:36:40;;;;;;;7.03;3.80;;;;;;;;;;5024226;28;20078;-86
2022/05/10 16:39:05;;;;;;;7.25;3.40;;;;;;;;;;5032167;28;20025;-86
2022/05/10 16:41:30;;;;;;;4.20;3.33;;;;;;;;;;5023881;28;20404;-86
2022/05/10 16:43:56;;;;;;;6.63;3.80;;;;;;;;;;5013124;28;20017;-87
2022/05/10 16:46:21;;;;;;;11.25;3.53;;;;;;;;;;5009447;28;20743;-87
2022/05/10 16:48:50;;;;;;;6.13;3.88;;;;;;;;;;5007310;28;20104;-87
2022/05/10 16:51:16;;;;;;;4.43;3.05;;;;;;;;;;5027541;28;20044;-87
2022/05/10 16:53:41;;;;;;;4.40;3.30;;;;;;;;;;5018026;28;20025;-86
2022/05/10 16:56:08;;;;;;;6.22;3.70;;;;;;;;;;5031978;28;20040;-87
2022/05/10 16:58:33;;;;;;;3.88;3.20;;;;;;;;;;5053776;28;20100;-87
2022/05/10 17:00:59;;;;;;;4.55;3.42;;;;;;;;;;5054499;28;20115;-86
2022/05/10 17:03:24;;;;;;;5.85;3.40;;;;;;;;;;5042351;28;20029;-86
2022/05/10 17:05:50;;;;;;;6.60;3.20;;;;;;;;;;5043485;28;20047;-87
2022/05/10 17:08:19;;;;;;;3.85;3.00;;;;;;;;;;5029307;28;20035;-87
2022/05/10 17:10:45;;;;;;;5.60;3.65;;;;;;;;;;5021536;28;20040;-87
2022/05/10 17:13:10;;;;;;;3.75;3.40;;;;;;;;;;5027205;28;20388;-86
2022/05/10 17:15:36;;;;;;;5.45;3.90;;;;;;;;;;5017604;28;20468;-86
2022/05/10 17:18:27;;;;;;;5.25;3.40;;;;;;;;;;5041235;28;20064;-86
2022/05/10 17:24:15;;;;;;;9.00;3.58;;;;;;;;;;5046665;28;20047;-86